Terminal Aerodrome Forecast
Issued by NWS

Home | Current Version | Previous Version | Text Only | Print | Product List | Glossary On
Versions: 1 2 3 4 5 6 7 8 9 10 11 12 13 14 15 16 17 18 19 20
000
FTUS43 KEAX 180520
TAFSTJ
TAF
KSTJ 180520Z 1806/1906 08008KT P6SM BKN250
     FM180800 10005KT P6SM BKN020
     FM181200 10006KT P6SM BKN010
     FM181500 14006KT 5SM -SHRA VCTS OVC015CB
      TEMPO 1815/1819 3SM TSRA OVC010CB
     FM181900 16007KT 6SM -SHRA VCTS BKN035CB
     FM182100 17008KT P6SM BKN035=

USA.gov is the U.S. government's official web portal to all federal, state and local government web resources and services.